KBRD/BRD METAR and TAF weather

Enter ICAO airport designator
Station Type Date Time Source
KBRD METAR 2021/10/22 18:53 UTC NOAA

KBRD 221853Z AUTO 33009KT 10SM OVC026 06/M02 A3010 RMK AO2 SLP206 T00561017 TSNO


Station Type Date Time Source
KBRD Decoded METAR 2021/10/22 18:53 UTC NOAA

BRAINERD-CROW WING CO AIRPORT , MN, United States (KBRD) 46-24N 94-08W 372M
Oct 22, 2021 - 02:53 PM EDT / 2021.10.22 1853 UTC
Wind: from the NNW (330 degrees) at 10 MPH (9 KT):0
Visibility: 10 mile(s):0
Sky conditions: overcast
Temperature: 42.1 F (5.6 C)
Dew Point: 28.9 F (-1.7 C)
Relative Humidity: 59%
Pressure (altimeter): 30.1 in. Hg (1019 hPa)
ob: KBRD 221853Z AUTO 33009KT 10SM OVC026 06/M02 A3010 RMK AO2 SLP206 T00561017 TSNO
cycle: 19

Station Type Date Time Source
KBRD TAF 2021/10/22 19:45 UTC NOAA

TAF
AMD KBRD 221842Z 2219/2318 VRB04KT P6SM BKN024
FM222300 VRB03KT P6SM BKN025
FM230300 00000KT P6SM BKN040
FM231300 00000KT P6SM SCT035

Example: see airport list